PSK weather

Punta San Carlos Airstrip
Punta San Carlos, Baja California, Mexico

Public forecast

Using degrees Celsius for public forecast. Weather courtesy of forecast.io.

METAR (pilot weather report)

Closest report is (Old) Puerto PeƱasco Airport, 146.1 nm (270.5 km) NE. Retrieved UTC (0 seconds ago):

TAF (pilot weather forecast)

Closest forecast is General Ignacio P. Garcia International Airport, 235.2 nm (435.6 km) E. Retrieved 2019/05/24 06:57 UTC (4 hours ago):

TAF MMHO 240450Z 2406/2506 28005KT P6SM SKC FM241800 24010KT P6SM SKC BECMG 2503/2505 27004KT